VJT64P EGLF-EIDL
Flight info
| Callsign | VJT64P |
|---|---|
| Flight time | 1h 35m |
| Altitude | 40000 |
| Route | HAZEL L620 SAM N19 ADKIK DCT PEWBI DCT MOPAT DCT SHA DCT EINN/N0458F410 DCT AGINI DCT 5345N00807W 5436N00759W 5514N00759W DCT FIXBE |
| Aircraft | CL60/M-SBDE1E2E3FGHIJ1J4J5J7M3RWXYZ/LB1V1D1 |
Departure
| Time | 2026-04-22 12:46 |
|---|---|
| Airport | Farnborough Airport (EGLF) |
Arrival
| Time | 2026-04-22 14:22 |
|---|---|
| Airport | Donegal Airport (EIDL) |
| Time | Latitude | Longitude | Altitude | Speed | Heading |
|---|---|---|---|---|---|
| 2026-04-22 12:17 | 51.28270 | -0.77673 | 242 ft | 0 kts | 64° |
| 2026-04-22 12:41 | 51.28271 | -0.77667 | 242 ft | 2 kts | 92° |
| 2026-04-22 12:42 | 51.28237 | -0.77653 | 242 ft | 7 kts | 198° |
| 2026-04-22 12:42 | 51.28184 | -0.77709 | 242 ft | 9 kts | 208° |
| 2026-04-22 12:42 | 51.28128 | -0.77766 | 242 ft | 12 kts | 217° |
| 2026-04-22 12:42 | 51.28044 | -0.77855 | 242 ft | 15 kts | 204° |
| 2026-04-22 12:43 | 51.27947 | -0.77886 | 242 ft | 14 kts | 199° |
| 2026-04-22 12:43 | 51.27852 | -0.77984 | 242 ft | 18 kts | 216° |
| 2026-04-22 12:43 | 51.27739 | -0.78112 | 242 ft | 21 kts | 215° |
| 2026-04-22 12:43 | 51.27649 | -0.78242 | 242 ft | 14 kts | 239° |
| 2026-04-22 12:44 | 51.27567 | -0.78367 | 242 ft | 18 kts | 220° |
| 2026-04-22 12:44 | 51.27458 | -0.78515 | 242 ft | 22 kts | 221° |
| 2026-04-22 12:44 | 51.27335 | -0.78687 | 242 ft | 19 kts | 223° |
| 2026-04-22 12:44 | 51.27272 | -0.78853 | 242 ft | 19 kts | 242° |
| 2026-04-22 12:45 | 51.27202 | -0.79062 | 242 ft | 21 kts | 242° |
| 2026-04-22 12:45 | 51.27143 | -0.79180 | 242 ft | 10 kts | 188° |
| 2026-04-22 12:45 | 51.27081 | -0.79130 | 242 ft | 6 kts | 118° |
| 2026-04-22 12:45 | 51.27097 | -0.79077 | 242 ft | 10 kts | 61° |
| 2026-04-22 12:46 | 51.27252 | -0.78617 | 242 ft | 98 kts | 62° |
| 2026-04-22 12:46 | 51.27708 | -0.77236 | 512 ft | 168 kts | 64° |
| 2026-04-22 12:46 | 51.28294 | -0.75372 | 1230 ft | 215 kts | 65° |
| 2026-04-22 12:46 | 51.28989 | -0.73252 | 2090 ft | 225 kts | 64° |
| 2026-04-22 12:47 | 51.29660 | -0.71027 | 3631 ft | 231 kts | 75° |
| 2026-04-22 12:47 | 51.29798 | -0.68622 | 5314 ft | 229 kts | 98° |
| 2026-04-22 12:47 | 51.29261 | -0.66299 | 6876 ft | 233 kts | 123° |
| 2026-04-22 12:47 | 51.28052 | -0.64637 | 8315 ft | 245 kts | 149° |
| 2026-04-22 12:48 | 51.26401 | -0.63936 | 9685 ft | 260 kts | 174° |
| 2026-04-22 12:48 | 51.24614 | -0.64541 | 11072 ft | 277 kts | 203° |
| 2026-04-22 12:48 | 51.23198 | -0.66629 | 12379 ft | 292 kts | 234° |
| 2026-04-22 12:48 | 51.22217 | -0.69524 | 13457 ft | 308 kts | 240° |
| 2026-04-22 12:49 | 51.21241 | -0.72557 | 14608 ft | 316 kts | 240° |
| 2026-04-22 12:49 | 51.20126 | -0.75599 | 15754 ft | 322 kts | 236° |
| 2026-04-22 12:49 | 51.18863 | -0.78543 | 16856 ft | 327 kts | 235° |
| 2026-04-22 12:49 | 51.17560 | -0.81542 | 17926 ft | 332 kts | 236° |
| 2026-04-22 12:50 | 51.16241 | -0.84580 | 18963 ft | 336 kts | 237° |
| 2026-04-22 12:50 | 51.14913 | -0.87633 | 20008 ft | 339 kts | 237° |
| 2026-04-22 12:50 | 51.13576 | -0.90702 | 20984 ft | 342 kts | 237° |
| 2026-04-22 12:50 | 51.12132 | -0.93748 | 21910 ft | 347 kts | 230° |
| 2026-04-22 12:51 | 51.10324 | -0.96311 | 22804 ft | 354 kts | 218° |
| 2026-04-22 12:51 | 51.08158 | -0.98183 | 23674 ft | 361 kts | 204° |
| 2026-04-22 12:51 | 51.05781 | -0.99413 | 24495 ft | 366 kts | 202° |
| 2026-04-22 12:51 | 51.03493 | -1.01173 | 25303 ft | 366 kts | 216° |
| 2026-04-22 12:52 | 51.01528 | -1.03705 | 26067 ft | 365 kts | 230° |
| 2026-04-22 12:52 | 50.99987 | -1.06871 | 26829 ft | 363 kts | 243° |
| 2026-04-22 12:52 | 50.98940 | -1.10505 | 27529 ft | 362 kts | 256° |
| 2026-04-22 12:52 | 50.98330 | -1.14389 | 28185 ft | 364 kts | 261° |
| 2026-04-22 12:53 | 50.97796 | -1.18319 | 28886 ft | 366 kts | 261° |
| 2026-04-22 12:53 | 50.97247 | -1.22300 | 29576 ft | 367 kts | 260° |
| 2026-04-22 12:53 | 50.96695 | -1.26289 | 30209 ft | 370 kts | 261° |
| 2026-04-22 12:53 | 50.96149 | -1.30215 | 30803 ft | 372 kts | 261° |
| 2026-04-22 12:54 | 50.95580 | -1.34306 | 31371 ft | 374 kts | 261° |
| 2026-04-22 12:54 | 50.95052 | -1.38392 | 31881 ft | 377 kts | 262° |
| 2026-04-22 12:54 | 50.94536 | -1.42494 | 32367 ft | 380 kts | 261° |
| 2026-04-22 12:54 | 50.94019 | -1.46577 | 32851 ft | 382 kts | 261° |
| 2026-04-22 12:55 | 50.93488 | -1.50756 | 33304 ft | 384 kts | 261° |
| 2026-04-22 12:55 | 50.92959 | -1.54909 | 33750 ft | 386 kts | 261° |
| 2026-04-22 12:55 | 50.92417 | -1.59141 | 34177 ft | 388 kts | 261° |
| 2026-04-22 12:55 | 50.91881 | -1.63309 | 34680 ft | 387 kts | 261° |
| 2026-04-22 12:56 | 50.91341 | -1.67498 | 35152 ft | 385 kts | 260° |
| 2026-04-22 12:56 | 50.90800 | -1.71674 | 35538 ft | 385 kts | 260° |
| 2026-04-22 12:56 | 50.90261 | -1.75831 | 35898 ft | 385 kts | 260° |
| 2026-04-22 12:56 | 50.89738 | -1.79842 | 36252 ft | 385 kts | 260° |
| 2026-04-22 12:57 | 50.89198 | -1.83979 | 36591 ft | 385 kts | 261° |
| 2026-04-22 12:57 | 50.88659 | -1.88087 | 36959 ft | 384 kts | 260° |
| 2026-04-22 12:57 | 50.88114 | -1.92235 | 37340 ft | 384 kts | 260° |
| 2026-04-22 12:57 | 50.87564 | -1.96404 | 37653 ft | 385 kts | 260° |
| 2026-04-22 12:58 | 50.87019 | -2.00526 | 37964 ft | 385 kts | 260° |
| 2026-04-22 12:58 | 50.86469 | -2.04666 | 38274 ft | 385 kts | 260° |
| 2026-04-22 12:58 | 50.85917 | -2.08815 | 38579 ft | 386 kts | 260° |
| 2026-04-22 12:58 | 50.85365 | -2.12950 | 38853 ft | 386 kts | 260° |
| 2026-04-22 12:59 | 50.84807 | -2.17117 | 39161 ft | 385 kts | 260° |
| 2026-04-22 12:59 | 50.84251 | -2.21258 | 39452 ft | 384 kts | 260° |
| 2026-04-22 12:59 | 50.83701 | -2.25341 | 39684 ft | 385 kts | 260° |
| 2026-04-22 12:59 | 50.83142 | -2.29483 | 39933 ft | 385 kts | 260° |
| 2026-04-22 13:00 | 50.82582 | -2.33617 | 40161 ft | 384 kts | 260° |
| 2026-04-22 13:00 | 50.81455 | -2.41908 | 40238 ft | 389 kts | 260° |
| 2026-04-22 13:01 | 50.80462 | -2.50319 | 40224 ft | 387 kts | 267° |
| 2026-04-22 13:01 | 50.80786 | -2.58725 | 40224 ft | 383 kts | 283° |
| 2026-04-22 13:02 | 50.82377 | -2.66769 | 40220 ft | 382 kts | 289° |
| 2026-04-22 13:02 | 50.84125 | -2.74685 | 40230 ft | 382 kts | 288° |
| 2026-04-22 13:03 | 50.85885 | -2.82701 | 40234 ft | 384 kts | 288° |
| 2026-04-22 13:03 | 50.87633 | -2.90704 | 40224 ft | 384 kts | 288° |
| 2026-04-22 13:04 | 50.89375 | -2.98713 | 40216 ft | 384 kts | 288° |
| 2026-04-22 13:04 | 50.91109 | -3.06721 | 40235 ft | 383 kts | 288° |
| 2026-04-22 13:05 | 50.92831 | -3.14712 | 40215 ft | 383 kts | 288° |
| 2026-04-22 13:05 | 50.94558 | -3.22756 | 40208 ft | 384 kts | 288° |
| 2026-04-22 13:06 | 50.96269 | -3.30758 | 40208 ft | 384 kts | 288° |
| 2026-04-22 13:06 | 50.97979 | -3.38786 | 40220 ft | 385 kts | 288° |
| 2026-04-22 13:07 | 50.99681 | -3.46811 | 40218 ft | 386 kts | 288° |
| 2026-04-22 13:07 | 51.01382 | -3.54863 | 40218 ft | 384 kts | 288° |
| 2026-04-22 13:08 | 51.03077 | -3.62925 | 40204 ft | 386 kts | 288° |
| 2026-04-22 13:08 | 51.04773 | -3.71019 | 40204 ft | 385 kts | 287° |
| 2026-04-22 13:09 | 51.06468 | -3.79141 | 40229 ft | 386 kts | 287° |
| 2026-04-22 13:09 | 51.08158 | -3.87277 | 40208 ft | 388 kts | 287° |
| 2026-04-22 13:10 | 51.09837 | -3.95389 | 40209 ft | 388 kts | 287° |
| 2026-04-22 13:10 | 51.11498 | -4.03442 | 40207 ft | 388 kts | 287° |
| 2026-04-22 13:11 | 51.13186 | -4.11665 | 40191 ft | 387 kts | 287° |
| 2026-04-22 13:11 | 51.14848 | -4.19798 | 40205 ft | 388 kts | 287° |
| 2026-04-22 13:12 | 51.16513 | -4.27981 | 40207 ft | 389 kts | 287° |
| 2026-04-22 13:12 | 51.18179 | -4.36195 | 40194 ft | 390 kts | 287° |
| 2026-04-22 13:13 | 51.19846 | -4.44456 | 40209 ft | 390 kts | 287° |
| 2026-04-22 13:13 | 51.21503 | -4.52700 | 40205 ft | 391 kts | 287° |
| 2026-04-22 13:14 | 51.23154 | -4.60946 | 40214 ft | 390 kts | 287° |
| 2026-04-22 13:14 | 51.24800 | -4.69204 | 40209 ft | 391 kts | 285° |
| 2026-04-22 13:15 | 51.26437 | -4.77454 | 40208 ft | 391 kts | 285° |
| 2026-04-22 13:15 | 51.28082 | -4.85780 | 40213 ft | 391 kts | 286° |
| 2026-04-22 13:16 | 51.29715 | -4.94076 | 40205 ft | 391 kts | 286° |
| 2026-04-22 13:16 | 51.31330 | -5.02392 | 40205 ft | 391 kts | 283° |
| 2026-04-22 13:17 | 51.32273 | -5.10909 | 40205 ft | 390 kts | 277° |
| 2026-04-22 13:17 | 51.33092 | -5.19414 | 40211 ft | 390 kts | 277° |
| 2026-04-22 13:18 | 51.33914 | -5.27999 | 40208 ft | 390 kts | 277° |
| 2026-04-22 13:18 | 51.34731 | -5.36572 | 40208 ft | 391 kts | 277° |
| 2026-04-22 13:19 | 51.35543 | -5.45142 | 40219 ft | 391 kts | 277° |
| 2026-04-22 13:19 | 51.36350 | -5.53732 | 40212 ft | 391 kts | 277° |
| 2026-04-22 13:20 | 51.37155 | -5.62348 | 40210 ft | 391 kts | 277° |
| 2026-04-22 13:20 | 51.37950 | -5.70933 | 40215 ft | 392 kts | 276° |
| 2026-04-22 13:21 | 51.38739 | -5.79516 | 40214 ft | 392 kts | 276° |
| 2026-04-22 13:21 | 51.39528 | -5.88169 | 40216 ft | 393 kts | 276° |
| 2026-04-22 13:22 | 51.40310 | -5.96801 | 40213 ft | 393 kts | 276° |
| 2026-04-22 13:22 | 51.41085 | -6.05447 | 40210 ft | 393 kts | 276° |
| 2026-04-22 13:23 | 51.41853 | -6.14072 | 40202 ft | 393 kts | 276° |
| 2026-04-22 13:23 | 51.42618 | -6.22748 | 40196 ft | 392 kts | 276° |
| 2026-04-22 13:24 | 51.43375 | -6.31404 | 40205 ft | 393 kts | 276° |
| 2026-04-22 13:24 | 51.44123 | -6.40031 | 40202 ft | 394 kts | 276° |
| 2026-04-22 13:25 | 51.44877 | -6.48795 | 40207 ft | 395 kts | 275° |
| 2026-04-22 13:25 | 51.45615 | -6.57468 | 40194 ft | 396 kts | 275° |
| 2026-04-22 13:26 | 51.46355 | -6.66224 | 40203 ft | 396 kts | 274° |
| 2026-04-22 13:26 | 51.47093 | -6.75046 | 40197 ft | 397 kts | 274° |
| 2026-04-22 13:26 | 51.47458 | -6.79452 | 39870 ft | 404 kts | 274° |
| 2026-04-22 13:27 | 51.47823 | -6.83849 | 39357 ft | 402 kts | 274° |
| 2026-04-22 13:27 | 51.48189 | -6.88274 | 38855 ft | 401 kts | 274° |
| 2026-04-22 13:27 | 51.48552 | -6.92689 | 38321 ft | 399 kts | 274° |
| 2026-04-22 13:27 | 51.48912 | -6.97097 | 37805 ft | 398 kts | 274° |
| 2026-04-22 13:28 | 51.49279 | -7.01482 | 37275 ft | 397 kts | 275° |
| 2026-04-22 13:28 | 51.49868 | -7.05766 | 36728 ft | 402 kts | 282° |
| 2026-04-22 13:28 | 51.50851 | -7.10018 | 36176 ft | 408 kts | 290° |
| 2026-04-22 13:28 | 51.52199 | -7.14013 | 35569 ft | 415 kts | 298° |
| 2026-04-22 13:29 | 51.53897 | -7.17797 | 34992 ft | 419 kts | 303° |
| 2026-04-22 13:29 | 51.55675 | -7.21500 | 34414 ft | 418 kts | 304° |
| 2026-04-22 13:29 | 51.57434 | -7.25185 | 33884 ft | 419 kts | 303° |
| 2026-04-22 13:29 | 51.59193 | -7.28878 | 33339 ft | 421 kts | 304° |
| 2026-04-22 13:30 | 51.60984 | -7.32641 | 32777 ft | 421 kts | 304° |
| 2026-04-22 13:30 | 51.62743 | -7.36339 | 32235 ft | 419 kts | 304° |
| 2026-04-22 13:30 | 51.64507 | -7.40052 | 31667 ft | 417 kts | 304° |
| 2026-04-22 13:30 | 51.66247 | -7.43723 | 31128 ft | 414 kts | 304° |
| 2026-04-22 13:31 | 51.68010 | -7.47449 | 30571 ft | 412 kts | 304° |
| 2026-04-22 13:31 | 51.69733 | -7.51094 | 30036 ft | 409 kts | 304° |
| 2026-04-22 13:31 | 51.71467 | -7.54769 | 29482 ft | 406 kts | 304° |
| 2026-04-22 13:31 | 51.73161 | -7.58367 | 28949 ft | 404 kts | 304° |
| 2026-04-22 13:32 | 51.74867 | -7.61993 | 28409 ft | 401 kts | 304° |
| 2026-04-22 13:32 | 51.76553 | -7.65585 | 27878 ft | 399 kts | 303° |
| 2026-04-22 13:32 | 51.78216 | -7.69132 | 27355 ft | 396 kts | 303° |
| 2026-04-22 13:32 | 51.79877 | -7.72680 | 26825 ft | 393 kts | 303° |
| 2026-04-22 13:33 | 51.81525 | -7.76205 | 26306 ft | 391 kts | 303° |
| 2026-04-22 13:33 | 51.83142 | -7.79668 | 25792 ft | 388 kts | 303° |
| 2026-04-22 13:33 | 51.84784 | -7.83191 | 25274 ft | 385 kts | 303° |
| 2026-04-22 13:33 | 51.86390 | -7.86641 | 24770 ft | 383 kts | 303° |
| 2026-04-22 13:34 | 51.87986 | -7.90075 | 24274 ft | 380 kts | 302° |
| 2026-04-22 13:34 | 51.89582 | -7.93512 | 23760 ft | 379 kts | 303° |
| 2026-04-22 13:34 | 51.91151 | -7.96899 | 23266 ft | 376 kts | 302° |
| 2026-04-22 13:34 | 51.92714 | -8.00274 | 22762 ft | 374 kts | 303° |
| 2026-04-22 13:35 | 51.94253 | -8.03602 | 22274 ft | 371 kts | 303° |
| 2026-04-22 13:35 | 51.95821 | -8.06999 | 21766 ft | 368 kts | 303° |
| 2026-04-22 13:35 | 51.97349 | -8.10314 | 21288 ft | 366 kts | 303° |
| 2026-04-22 13:35 | 51.98848 | -8.13570 | 20795 ft | 363 kts | 303° |
| 2026-04-22 13:36 | 52.00355 | -8.16848 | 20320 ft | 361 kts | 303° |
| 2026-04-22 13:36 | 52.01850 | -8.20112 | 19835 ft | 361 kts | 303° |
| 2026-04-22 13:36 | 52.03330 | -8.23341 | 19376 ft | 361 kts | 303° |
| 2026-04-22 13:36 | 52.04830 | -8.26615 | 18881 ft | 360 kts | 303° |
| 2026-04-22 13:37 | 52.06302 | -8.29831 | 18413 ft | 357 kts | 303° |
| 2026-04-22 13:37 | 52.07778 | -8.33060 | 17936 ft | 356 kts | 303° |
| 2026-04-22 13:37 | 52.09246 | -8.36276 | 17464 ft | 354 kts | 303° |
| 2026-04-22 13:37 | 52.10715 | -8.39496 | 16993 ft | 352 kts | 303° |
| 2026-04-22 13:38 | 52.12180 | -8.42714 | 16516 ft | 350 kts | 303° |
| 2026-04-22 13:38 | 52.15068 | -8.49067 | 15606 ft | 345 kts | 303° |
| 2026-04-22 13:38 | 52.16472 | -8.52164 | 15156 ft | 343 kts | 303° |
| 2026-04-22 13:39 | 52.17875 | -8.55260 | 14702 ft | 341 kts | 303° |
| 2026-04-22 13:39 | 52.19277 | -8.58357 | 14247 ft | 339 kts | 303° |
| 2026-04-22 13:39 | 52.20666 | -8.61431 | 13802 ft | 336 kts | 303° |
| 2026-04-22 13:39 | 52.22047 | -8.64489 | 13350 ft | 335 kts | 303° |
| 2026-04-22 13:40 | 52.23474 | -8.67496 | 12901 ft | 334 kts | 307° |
| 2026-04-22 13:40 | 52.24995 | -8.70312 | 12462 ft | 332 kts | 309° |
| 2026-04-22 13:40 | 52.26552 | -8.73146 | 11997 ft | 331 kts | 310° |
| 2026-04-22 13:40 | 52.28082 | -8.75940 | 11552 ft | 330 kts | 310° |
| 2026-04-22 13:41 | 52.29613 | -8.78739 | 11138 ft | 327 kts | 310° |
| 2026-04-22 13:41 | 52.31128 | -8.81516 | 10689 ft | 326 kts | 311° |
| 2026-04-22 13:41 | 52.32623 | -8.84260 | 10299 ft | 324 kts | 311° |
| 2026-04-22 13:41 | 52.34130 | -8.87030 | 10176 ft | 325 kts | 311° |
| 2026-04-22 13:42 | 52.35641 | -8.89812 | 10180 ft | 325 kts | 311° |
| 2026-04-22 13:42 | 52.37151 | -8.92594 | 10179 ft | 325 kts | 311° |
| 2026-04-22 13:42 | 52.38631 | -8.95326 | 10192 ft | 321 kts | 311° |
| 2026-04-22 13:42 | 52.40103 | -8.98045 | 9998 ft | 320 kts | 311° |
| 2026-04-22 13:43 | 52.41589 | -9.00792 | 9630 ft | 317 kts | 311° |
| 2026-04-22 13:43 | 52.43026 | -9.03454 | 9261 ft | 313 kts | 311° |
| 2026-04-22 13:43 | 52.44458 | -9.06109 | 8879 ft | 311 kts | 311° |
| 2026-04-22 13:43 | 52.45894 | -9.08774 | 8510 ft | 307 kts | 311° |
| 2026-04-22 13:44 | 52.47176 | -9.11509 | 8153 ft | 303 kts | 300° |
| 2026-04-22 13:44 | 52.48237 | -9.14488 | 7772 ft | 300 kts | 298° |
| 2026-04-22 13:44 | 52.49260 | -9.17436 | 7403 ft | 298 kts | 298° |
| 2026-04-22 13:44 | 52.50274 | -9.20368 | 7023 ft | 296 kts | 298° |
| 2026-04-22 13:45 | 52.51289 | -9.23300 | 6644 ft | 294 kts | 298° |
| 2026-04-22 13:45 | 52.52298 | -9.26221 | 6261 ft | 293 kts | 298° |
| 2026-04-22 13:45 | 52.53290 | -9.29114 | 5835 ft | 293 kts | 298° |
| 2026-04-22 13:45 | 52.54280 | -9.32040 | 5404 ft | 293 kts | 298° |
| 2026-04-22 13:46 | 52.55231 | -9.34953 | 4983 ft | 292 kts | 292° |
| 2026-04-22 13:46 | 52.55608 | -9.38143 | 4606 ft | 279 kts | 260° |
| 2026-04-22 13:46 | 52.55023 | -9.40998 | 4253 ft | 254 kts | 225° |
| 2026-04-22 13:46 | 52.53766 | -9.42684 | 3917 ft | 215 kts | 191° |
| 2026-04-22 13:47 | 52.52410 | -9.42765 | 3576 ft | 190 kts | 154° |
| 2026-04-22 13:47 | 52.51472 | -9.41433 | 3221 ft | 180 kts | 117° |
| 2026-04-22 13:47 | 52.51232 | -9.39423 | 2975 ft | 182 kts | 99° |
| 2026-04-22 13:47 | 52.51170 | -9.37322 | 2951 ft | 183 kts | 97° |
| 2026-04-22 13:48 | 52.51310 | -9.35244 | 2961 ft | 194 kts | 77° |
| 2026-04-22 13:48 | 52.52158 | -9.33408 | 2948 ft | 207 kts | 57° |
| 2026-04-22 13:48 | 52.53168 | -9.31726 | 2959 ft | 207 kts | 56° |
| 2026-04-22 13:48 | 52.54178 | -9.30056 | 2951 ft | 207 kts | 56° |
| 2026-04-22 13:49 | 52.55185 | -9.28365 | 2954 ft | 205 kts | 59° |
| 2026-04-22 13:49 | 52.56073 | -9.26539 | 2960 ft | 202 kts | 63° |
| 2026-04-22 13:49 | 52.56916 | -9.24709 | 2959 ft | 203 kts | 63° |
| 2026-04-22 13:49 | 52.57671 | -9.22784 | 2961 ft | 197 kts | 72° |
| 2026-04-22 13:50 | 52.58185 | -9.20730 | 2974 ft | 194 kts | 78° |
| 2026-04-22 13:50 | 52.58648 | -9.18637 | 2970 ft | 194 kts | 78° |
| 2026-04-22 13:50 | 52.59113 | -9.16550 | 2962 ft | 195 kts | 76° |
| 2026-04-22 13:50 | 52.59789 | -9.14598 | 2971 ft | 194 kts | 65° |
| 2026-04-22 13:51 | 52.60582 | -9.12857 | 2821 ft | 188 kts | 63° |
| 2026-04-22 13:51 | 52.61363 | -9.11176 | 2591 ft | 183 kts | 63° |
| 2026-04-22 13:51 | 52.62133 | -9.09536 | 2353 ft | 176 kts | 62° |
| 2026-04-22 13:51 | 52.62859 | -9.08017 | 2138 ft | 163 kts | 62° |
| 2026-04-22 13:52 | 52.63535 | -9.06596 | 1912 ft | 153 kts | 63° |
| 2026-04-22 13:52 | 52.64147 | -9.05310 | 1697 ft | 137 kts | 62° |
| 2026-04-22 13:52 | 52.64731 | -9.04068 | 1524 ft | 137 kts | 63° |
| 2026-04-22 13:52 | 52.65311 | -9.02815 | 1352 ft | 138 kts | 62° |
| 2026-04-22 13:53 | 52.65898 | -9.01558 | 1172 ft | 139 kts | 61° |
| 2026-04-22 13:53 | 52.66486 | -9.00314 | 995 ft | 141 kts | 60° |
| 2026-04-22 13:53 | 52.67101 | -8.99014 | 811 ft | 141 kts | 60° |
| 2026-04-22 13:53 | 52.67705 | -8.97741 | 609 ft | 137 kts | 59° |
| 2026-04-22 13:54 | 52.68257 | -8.96602 | 497 ft | 114 kts | 60° |
| 2026-04-22 13:54 | 52.68737 | -8.95589 | 309 ft | 114 kts | 60° |
| 2026-04-22 13:54 | 52.69228 | -8.94528 | 180 ft | 127 kts | 58° |
| 2026-04-22 13:54 | 52.69850 | -8.93183 | 794 ft | 172 kts | 60° |
| 2026-04-22 13:55 | 52.70655 | -8.91370 | 1540 ft | 225 kts | 60° |
| 2026-04-22 13:55 | 52.71537 | -8.89430 | 3448 ft | 223 kts | 62° |
| 2026-04-22 13:55 | 52.72459 | -8.87348 | 4935 ft | 239 kts | 63° |
| 2026-04-22 13:55 | 52.73482 | -8.85172 | 6436 ft | 258 kts | 55° |
| 2026-04-22 13:56 | 52.74939 | -8.83371 | 7975 ft | 279 kts | 37° |
| 2026-04-22 13:56 | 52.76781 | -8.82223 | 9537 ft | 296 kts | 20° |
| 2026-04-22 13:56 | 52.78842 | -8.81875 | 10933 ft | 313 kts | 3° |
| 2026-04-22 13:56 | 52.81032 | -8.82285 | 12315 ft | 324 kts | 356° |
| 2026-04-22 13:57 | 52.83252 | -8.82215 | 13427 ft | 333 kts | 14° |
| 2026-04-22 13:57 | 52.85427 | -8.80937 | 13972 ft | 331 kts | 28° |
| 2026-04-22 13:57 | 52.87529 | -8.79327 | 14156 ft | 330 kts | 28° |
| 2026-04-22 13:57 | 52.89606 | -8.77746 | 14220 ft | 329 kts | 29° |
| 2026-04-22 13:58 | 52.91684 | -8.76155 | 14205 ft | 327 kts | 29° |
| 2026-04-22 13:58 | 52.93751 | -8.74573 | 14204 ft | 327 kts | 29° |
| 2026-04-22 13:58 | 52.95805 | -8.73002 | 14198 ft | 327 kts | 29° |
| 2026-04-22 13:58 | 52.97887 | -8.71409 | 14193 ft | 326 kts | 29° |
| 2026-04-22 13:59 | 52.99945 | -8.69830 | 14209 ft | 326 kts | 29° |
| 2026-04-22 13:59 | 53.01989 | -8.68264 | 14218 ft | 326 kts | 29° |
| 2026-04-22 13:59 | 53.04069 | -8.66669 | 14216 ft | 325 kts | 29° |
| 2026-04-22 13:59 | 53.06120 | -8.65097 | 14218 ft | 324 kts | 29° |
| 2026-04-22 14:00 | 53.08163 | -8.63530 | 14211 ft | 325 kts | 29° |
| 2026-04-22 14:00 | 53.10197 | -8.61969 | 14213 ft | 324 kts | 29° |
| 2026-04-22 14:00 | 53.12275 | -8.60374 | 14224 ft | 324 kts | 29° |
| 2026-04-22 14:00 | 53.14324 | -8.58814 | 14225 ft | 325 kts | 27° |
| 2026-04-22 14:01 | 53.16510 | -8.57895 | 14240 ft | 331 kts | 7° |
| 2026-04-22 14:01 | 53.18819 | -8.57758 | 14230 ft | 332 kts | 4° |
| 2026-04-22 14:01 | 53.21114 | -8.57658 | 14238 ft | 331 kts | 4° |
| 2026-04-22 14:01 | 53.23414 | -8.57553 | 14233 ft | 330 kts | 4° |
| 2026-04-22 14:02 | 53.25709 | -8.57450 | 14238 ft | 330 kts | 4° |
| 2026-04-22 14:02 | 53.28020 | -8.57346 | 14247 ft | 330 kts | 4° |
| 2026-04-22 14:02 | 53.30325 | -8.57244 | 14245 ft | 329 kts | 4° |
| 2026-04-22 14:02 | 53.32618 | -8.57142 | 14237 ft | 330 kts | 4° |
| 2026-04-22 14:03 | 53.34898 | -8.57042 | 14245 ft | 329 kts | 4° |
| 2026-04-22 14:03 | 53.37186 | -8.56941 | 14247 ft | 330 kts | 4° |
| 2026-04-22 14:03 | 53.39559 | -8.56833 | 14241 ft | 354 kts | 4° |
| 2026-04-22 14:03 | 53.42110 | -8.56713 | 14225 ft | 384 kts | 4° |
| 2026-04-22 14:04 | 53.44906 | -8.56582 | 14237 ft | 416 kts | 4° |
| 2026-04-22 14:04 | 53.47857 | -8.56446 | 14241 ft | 433 kts | 4° |
| 2026-04-22 14:04 | 53.50908 | -8.56309 | 14254 ft | 435 kts | 4° |
| 2026-04-22 14:04 | 53.53919 | -8.56175 | 14260 ft | 435 kts | 4° |
| 2026-04-22 14:05 | 53.56945 | -8.56042 | 14260 ft | 434 kts | 4° |
| 2026-04-22 14:05 | 53.59927 | -8.55911 | 14263 ft | 433 kts | 4° |
| 2026-04-22 14:05 | 53.65979 | -8.55645 | 14278 ft | 433 kts | 4° |
| 2026-04-22 14:06 | 53.68972 | -8.55514 | 14271 ft | 432 kts | 4° |
| 2026-04-22 14:06 | 53.71984 | -8.55383 | 14284 ft | 431 kts | 4° |
| 2026-04-22 14:06 | 53.75035 | -8.55249 | 14272 ft | 431 kts | 4° |
| 2026-04-22 14:06 | 53.78028 | -8.55119 | 14295 ft | 431 kts | 4° |
| 2026-04-22 14:07 | 53.81095 | -8.54984 | 14274 ft | 431 kts | 4° |
| 2026-04-22 14:07 | 53.84115 | -8.54853 | 14269 ft | 429 kts | 4° |
| 2026-04-22 14:07 | 53.87109 | -8.54722 | 14295 ft | 430 kts | 4° |
| 2026-04-22 14:07 | 53.90164 | -8.54589 | 14271 ft | 430 kts | 4° |
| 2026-04-22 14:08 | 53.93190 | -8.54457 | 14271 ft | 430 kts | 4° |
| 2026-04-22 14:08 | 53.96242 | -8.54323 | 14279 ft | 429 kts | 4° |
| 2026-04-22 14:08 | 53.98949 | -8.54205 | 14279 ft | 429 kts | 4° |
| 2026-04-22 14:08 | 54.01948 | -8.54074 | 14312 ft | 429 kts | 4° |
| 2026-04-22 14:09 | 54.04958 | -8.53943 | 14286 ft | 428 kts | 4° |
| 2026-04-22 14:09 | 54.07948 | -8.53811 | 14295 ft | 428 kts | 4° |
| 2026-04-22 14:09 | 54.10918 | -8.53680 | 14296 ft | 428 kts | 4° |
| 2026-04-22 14:09 | 54.13891 | -8.53549 | 14297 ft | 428 kts | 4° |
| 2026-04-22 14:10 | 54.16870 | -8.53418 | 14291 ft | 428 kts | 4° |
| 2026-04-22 14:10 | 54.19858 | -8.53286 | 14296 ft | 427 kts | 4° |
| 2026-04-22 14:10 | 54.22850 | -8.53154 | 14300 ft | 427 kts | 4° |
| 2026-04-22 14:10 | 54.25843 | -8.53022 | 14300 ft | 428 kts | 4° |
| 2026-04-22 14:11 | 54.28841 | -8.52889 | 14180 ft | 430 kts | 4° |
| 2026-04-22 14:11 | 54.31808 | -8.52756 | 13713 ft | 419 kts | 4° |
| 2026-04-22 14:11 | 54.34642 | -8.52636 | 13206 ft | 398 kts | 4° |
| 2026-04-22 14:11 | 54.37344 | -8.52521 | 12716 ft | 381 kts | 4° |
| 2026-04-22 14:12 | 54.39931 | -8.52412 | 12220 ft | 367 kts | 4° |
| 2026-04-22 14:12 | 54.42446 | -8.52305 | 11742 ft | 355 kts | 5° |
| 2026-04-22 14:12 | 54.44863 | -8.52205 | 11275 ft | 340 kts | 5° |
| 2026-04-22 14:12 | 54.47168 | -8.52109 | 10847 ft | 327 kts | 5° |
| 2026-04-22 14:13 | 54.49382 | -8.52017 | 10432 ft | 316 kts | 5° |
| 2026-04-22 14:13 | 54.51543 | -8.51926 | 10049 ft | 308 kts | 6° |
| 2026-04-22 14:13 | 54.53665 | -8.51835 | 9626 ft | 305 kts | 6° |
| 2026-04-22 14:13 | 54.55782 | -8.51742 | 9219 ft | 303 kts | 6° |
| 2026-04-22 14:14 | 54.57870 | -8.51651 | 8806 ft | 301 kts | 6° |
| 2026-04-22 14:14 | 54.59943 | -8.51559 | 8412 ft | 299 kts | 6° |
| 2026-04-22 14:14 | 54.62023 | -8.51467 | 8020 ft | 297 kts | 6° |
| 2026-04-22 14:14 | 54.64089 | -8.51376 | 7617 ft | 296 kts | 6° |
| 2026-04-22 14:15 | 54.66142 | -8.51285 | 7225 ft | 294 kts | 7° |
| 2026-04-22 14:15 | 54.68175 | -8.51194 | 6830 ft | 292 kts | 7° |
| 2026-04-22 14:15 | 54.70187 | -8.51105 | 6453 ft | 290 kts | 7° |
| 2026-04-22 14:15 | 54.72208 | -8.51013 | 5961 ft | 293 kts | 7° |
| 2026-04-22 14:16 | 54.74244 | -8.50918 | 5381 ft | 293 kts | 7° |
| 2026-04-22 14:16 | 54.76284 | -8.50830 | 4966 ft | 287 kts | 7° |
| 2026-04-22 14:16 | 54.78230 | -8.50681 | 4577 ft | 277 kts | 13° |
| 2026-04-22 14:16 | 54.80029 | -8.49839 | 4203 ft | 263 kts | 27° |
| 2026-04-22 14:17 | 54.81730 | -8.48717 | 3855 ft | 259 kts | 27° |
| 2026-04-22 14:17 | 54.83403 | -8.47625 | 3522 ft | 257 kts | 27° |
| 2026-04-22 14:17 | 54.85054 | -8.46548 | 3189 ft | 256 kts | 27° |
| 2026-04-22 14:17 | 54.86712 | -8.45471 | 2986 ft | 253 kts | 27° |
| 2026-04-22 14:18 | 54.88379 | -8.44415 | 2963 ft | 254 kts | 27° |
| 2026-04-22 14:18 | 54.90028 | -8.43371 | 2964 ft | 245 kts | 27° |
| 2026-04-22 14:18 | 54.91575 | -8.42388 | 2770 ft | 230 kts | 28° |
| 2026-04-22 14:18 | 54.93023 | -8.41455 | 2490 ft | 214 kts | 28° |
| 2026-04-22 14:19 | 54.94419 | -8.40550 | 2213 ft | 211 kts | 28° |
| 2026-04-22 14:19 | 54.95754 | -8.39695 | 1904 ft | 195 kts | 29° |
| 2026-04-22 14:19 | 54.96943 | -8.38949 | 1681 ft | 167 kts | 31° |
| 2026-04-22 14:19 | 54.97992 | -8.38270 | 1432 ft | 158 kts | 31° |
| 2026-04-22 14:20 | 54.99968 | -8.36990 | 989 ft | 134 kts | 30° |
| 2026-04-22 14:20 | 55.00774 | -8.36479 | 808 ft | 118 kts | 31° |
| 2026-04-22 14:20 | 55.01539 | -8.35972 | 621 ft | 115 kts | 31° |
| 2026-04-22 14:21 | 55.03045 | -8.34989 | 296 ft | 114 kts | 30° |
| 2026-04-22 14:21 | 55.03795 | -8.34505 | 77 ft | 115 kts | 29° |
| 2026-04-22 14:22 | 55.04834 | -8.33826 | 22 ft | 26 kts | 19° |
| 2026-04-22 14:22 | 55.04980 | -8.33732 | 24 ft | 20 kts | 19° |
| 2026-04-22 14:22 | 55.04945 | -8.33760 | 23 ft | 18 kts | 193° |
| 2026-04-22 14:23 | 55.04794 | -8.33853 | 22 ft | 26 kts | 202° |
| 2026-04-22 14:23 | 55.04623 | -8.33965 | 20 ft | 23 kts | 201° |
| 2026-04-22 14:23 | 55.04468 | -8.34067 | 18 ft | 25 kts | 200° |
| 2026-04-22 14:23 | 55.04287 | -8.34181 | 16 ft | 29 kts | 199° |
| 2026-04-22 14:24 | 55.04094 | -8.34309 | 14 ft | 20 kts | 200° |
| 2026-04-22 14:24 | 55.03973 | -8.34387 | 13 ft | 15 kts | 201° |
| 2026-04-22 14:24 | 55.03901 | -8.34420 | 13 ft | 7 kts | 162° |
| 2026-04-22 14:24 | 55.03875 | -8.34328 | 13 ft | 10 kts | 90° |
| 2026-04-22 14:25 | 55.03888 | -8.34228 | 13 ft | 3 kts | 86° |
| 2026-04-22 14:25 | 55.03867 | -8.34192 | 13 ft | 6 kts | 185° |
| 2026-04-22 14:25 | 55.03834 | -8.34230 | 13 ft | 3 kts | 276° |
| 2026-04-22 14:25 | 55.03836 | -8.34238 | 13 ft | 0 kts | 294° |